sensor_id;sensor_type;location;lat;lon;timestamp;pressure;altitude;pressure_sealevel;temperature;humidity
29909;BME280;36247;51.952;6.146;2023-03-12T00:01:16;101066.03;;;1.71;100.00
29909;BME280;36247;51.952;6.146;2023-03-12T00:03:42;101064.56;;;1.59;100.00
29909;BME280;36247;51.952;6.146;2023-03-12T00:06:08;101059.16;;;1.73;100.00
29909;BME280;36247;51.952;6.146;2023-03-12T00:08:34;101060.81;;;1.71;100.00
29909;BME280;36247;51.952;6.146;2023-03-12T00:10:59;101060.16;;;1.75;100.00
29909;BME280;36247;51.952;6.146;2023-03-12T00:13:25;101066.34;;;1.77;100.00
29909;BME280;36247;51.952;6.146;2023-03-12T00:15:50;101068.97;;;1.77;100.00
29909;BME280;36247;51.952;6.146;2023-03-12T00:18:16;101065.88;;;1.84;100.00
29909;BME280;36247;51.952;6.146;2023-03-12T00:20:42;101058.28;;;1.89;100.00
29909;BME280;36247;51.952;6.146;2023-03-12T00:23:07;101055.09;;;1.94;100.00
29909;BME280;36247;51.952;6.146;2023-03-12T00:25:33;101048.69;;;2.06;100.00
29909;BME280;36247;51.952;6.146;2023-03-12T00:27:58;101047.06;;;2.08;100.00
29909;BME280;36247;51.952;6.146;2023-03-12T00:30:24;101044.38;;;2.06;100.00
29909;BME280;36247;51.952;6.146;2023-03-12T00:32:52;101036.31;;;2.02;100.00
29909;BME280;36247;51.952;6.146;2023-03-12T00:35:17;101042.50;;;2.04;100.00
29909;BME280;36247;51.952;6.146;2023-03-12T00:37:43;101040.19;;;2.10;100.00
29909;BME280;36247;51.952;6.146;2023-03-12T00:40:09;101032.28;;;2.08;100.00
29909;BME280;36247;51.952;6.146;2023-03-12T00:42:35;101031.81;;;1.99;100.00
29909;BME280;36247;51.952;6.146;2023-03-12T00:45:01;101031.22;;;2.05;100.00
29909;BME280;36247;51.952;6.146;2023-03-12T00:47:26;101031.47;;;2.09;100.00
29909;BME280;36247;51.952;6.146;2023-03-12T00:49:52;101021.38;;;2.17;100.00
29909;BME280;36247;51.952;6.146;2023-03-12T00:52:17;101016.81;;;2.13;100.00
29909;BME280;36247;51.952;6.146;2023-03-12T00:54:43;101012.31;;;2.10;100.00
29909;BME280;36247;51.952;6.146;2023-03-12T00:57:08;101014.13;;;2.11;100.00
29909;BME280;36247;51.952;6.146;2023-03-12T00:59:35;101007.94;;;2.09;100.00
29909;BME280;36247;51.952;6.146;2023-03-12T01:02:06;101006.88;;;2.06;100.00
29909;BME280;36247;51.952;6.146;2023-03-12T01:04:31;101008.44;;;2.02;100.00
29909;BME280;36247;51.952;6.146;2023-03-12T01:06:57;101003.06;;;1.99;100.00
29909;BME280;36247;51.952;6.146;2023-03-12T01:09:22;101004.25;;;2.06;100.00
29909;BME280;36247;51.952;6.146;2023-03-12T01:11:50;100995.44;;;2.04;100.00
29909;BME280;36247;51.952;6.146;2023-03-12T01:14:15;100994.94;;;2.11;100.00
29909;BME280;36247;51.952;6.146;2023-03-12T01:16:41;100996.00;;;2.15;100.00
29909;BME280;36247;51.952;6.146;2023-03-12T01:19:06;101000.47;;;2.17;100.00
29909;BME280;36247;51.952;6.146;2023-03-12T01:21:32;101006.16;;;2.26;100.00
29909;BME280;36247;51.952;6.146;2023-03-12T01:23:58;101005.06;;;2.21;100.00
29909;BME280;36247;51.952;6.146;2023-03-12T01:26:23;101007.81;;;2.24;100.00
29909;BME280;36247;51.952;6.146;2023-03-12T01:28:49;101002.75;;;2.27;100.00
29909;BME280;36247;51.952;6.146;2023-03-12T01:31:17;101000.84;;;2.25;100.00
29909;BME280;36247;51.952;6.146;2023-03-12T01:33:44;101000.06;;;2.26;100.00
29909;BME280;36247;51.952;6.146;2023-03-12T01:36:28;100995.41;;;2.20;100.00
29909;BME280;36247;51.952;6.146;2023-03-12T01:38:56;100989.44;;;2.23;100.00
29909;BME280;36247;51.952;6.146;2023-03-12T01:41:25;100982.63;;;2.08;100.00
29909;BME280;36247;51.952;6.146;2023-03-12T01:43:50;100975.66;;;2.09;100.00
29909;BME280;36247;51.952;6.146;2023-03-12T01:46:36;100977.16;;;2.04;100.00
29909;BME280;36247;51.952;6.146;2023-03-12T01:49:30;100974.69;;;2.07;100.00
29909;BME280;36247;51.952;6.146;2023-03-12T01:52:04;100962.97;;;1.99;100.00
29909;BME280;36247;51.952;6.146;2023-03-12T01:54:44;100955.53;;;2.06;100.00
29909;BME280;36247;51.952;6.146;2023-03-12T01:57:20;100964.97;;;2.04;100.00
29909;BME280;36247;51.952;6.146;2023-03-12T01:59:51;100961.19;;;1.98;100.00
29909;BME280;36247;51.952;6.146;2023-03-12T02:02:18;100961.19;;;1.98;100.00
29909;BME280;36247;51.952;6.146;2023-03-12T02:04:50;100956.31;;;2.05;100.00
29909;BME280;36247;51.952;6.146;2023-03-12T02:07:17;100965.25;;;1.92;100.00
29909;BME280;36247;51.952;6.146;2023-03-12T02:09:46;100968.13;;;1.81;100.00
29909;BME280;36247;51.952;6.146;2023-03-12T02:12:13;100964.63;;;1.80;100.00
29909;BME280;36247;51.952;6.146;2023-03-12T02:14:39;100955.34;;;1.85;100.00
29909;BME280;36247;51.952;6.146;2023-03-12T02:17:06;100954.50;;;1.86;100.00
29909;BME280;36247;51.952;6.146;2023-03-12T02:21:58;100946.66;;;1.86;100.00
29909;BME280;36247;51.952;6.146;2023-03-12T02:24:29;100946.06;;;1.92;100.00
29909;BME280;36247;51.952;6.146;2023-03-12T02:26:57;100941.59;;;1.89;100.00
29909;BME280;36247;51.952;6.146;2023-03-12T02:29:25;100935.75;;;1.77;100.00
29909;BME280;36247;51.952;6.146;2023-03-12T02:31:54;100930.97;;;1.86;100.00
29909;BME280;36247;51.952;6.146;2023-03-12T02:34:21;100936.28;;;1.88;100.00
29909;BME280;36247;51.952;6.146;2023-03-12T02:36:48;100929.06;;;1.82;100.00
29909;BME280;36247;51.952;6.146;2023-03-12T02:39:14;100926.06;;;1.92;100.00
29909;BME280;36247;51.952;6.146;2023-03-12T02:41:45;100928.00;;;1.97;100.00
29909;BME280;36247;51.952;6.146;2023-03-12T02:44:24;100922.56;;;1.92;100.00
29909;BME280;36247;51.952;6.146;2023-03-12T02:46:53;100919.38;;;1.98;100.00
29909;BME280;36247;51.952;6.146;2023-03-12T02:49:21;100913.34;;;1.99;100.00
29909;BME280;36247;51.952;6.146;2023-03-12T02:51:48;100900.25;;;1.99;100.00
29909;BME280;36247;51.952;6.146;2023-03-12T02:54:15;100886.78;;;1.91;100.00
29909;BME280;36247;51.952;6.146;2023-03-12T02:56:42;100892.44;;;1.99;100.00
29909;BME280;36247;51.952;6.146;2023-03-12T02:59:09;100887.34;;;2.02;100.00
29909;BME280;36247;51.952;6.146;2023-03-12T03:01:38;100877.72;;;2.01;100.00
29909;BME280;36247;51.952;6.146;2023-03-12T03:04:06;100879.66;;;2.05;100.00
29909;BME280;36247;51.952;6.146;2023-03-12T03:06:32;100879.81;;;2.08;100.00
29909;BME280;36247;51.952;6.146;2023-03-12T03:08:58;100872.94;;;2.10;100.00
29909;BME280;36247;51.952;6.146;2023-03-12T03:11:24;100876.66;;;2.15;100.00
29909;BME280;36247;51.952;6.146;2023-03-12T03:13:53;100864.63;;;2.19;100.00
29909;BME280;36247;51.952;6.146;2023-03-12T03:16:20;100867.03;;;2.14;100.00
29909;BME280;36247;51.952;6.146;2023-03-12T03:18:46;100869.66;;;2.14;100.00
29909;BME280;36247;51.952;6.146;2023-03-12T03:21:12;100879.13;;;2.12;100.00
29909;BME280;36247;51.952;6.146;2023-03-12T03:23:42;100869.94;;;2.20;100.00
29909;BME280;36247;51.952;6.146;2023-03-12T03:26:08;100867.53;;;2.25;100.00
29909;BME280;36247;51.952;6.146;2023-03-12T03:28:34;100857.97;;;2.25;100.00
29909;BME280;36247;51.952;6.146;2023-03-12T03:30:59;100855.97;;;2.20;100.00
29909;BME280;36247;51.952;6.146;2023-03-12T03:33:29;100857.00;;;2.23;100.00
29909;BME280;36247;51.952;6.146;2023-03-12T03:35:56;100857.97;;;2.25;100.00
29909;BME280;36247;51.952;6.146;2023-03-12T03:38:26;100845.75;;;2.24;100.00
29909;BME280;36247;51.952;6.146;2023-03-12T03:40:52;100846.63;;;2.25;100.00
29909;BME280;36247;51.952;6.146;2023-03-12T03:43:18;100853.44;;;2.21;100.00
29909;BME280;36247;51.952;6.146;2023-03-12T03:45:44;100849.09;;;2.22;100.00
29909;BME280;36247;51.952;6.146;2023-03-12T03:48:11;100842.38;;;2.27;100.00
29909;BME280;36247;51.952;6.146;2023-03-12T03:50:37;100847.69;;;2.28;100.00
29909;BME280;36247;51.952;6.146;2023-03-12T03:53:04;100843.41;;;2.31;100.00
29909;BME280;36247;51.952;6.146;2023-03-12T03:55:29;100839.84;;;2.28;100.00
29909;BME280;36247;51.952;6.146;2023-03-12T03:57:56;100839.66;;;2.25;100.00
29909;BME280;36247;51.952;6.146;2023-03-12T04:00:21;100835.28;;;2.24;100.00
29909;BME280;36247;51.952;6.146;2023-03-12T04:02:50;100834.16;;;2.19;100.00
29909;BME280;36247;51.952;6.146;2023-03-12T04:05:16;100831.69;;;2.22;100.00
29909;BME280;36247;51.952;6.146;2023-03-12T04:07:44;100840.66;;;2.27;100.00
29909;BME280;36247;51.952;6.146;2023-03-12T04:10:11;100842.13;;;2.22;100.00
29909;BME280;36247;51.952;6.146;2023-03-12T04:12:37;100837.75;;;2.21;100.00
29909;BME280;36247;51.952;6.146;2023-03-12T04:15:04;100833.78;;;2.11;100.00
29909;BME280;36247;51.952;6.146;2023-03-12T04:17:30;100828.84;;;2.18;100.00
29909;BME280;36247;51.952;6.146;2023-03-12T04:19:56;100827.81;;;2.14;100.00
29909;BME280;36247;51.952;6.146;2023-03-12T04:22:22;100824.25;;;2.12;100.00
29909;BME280;36247;51.952;6.146;2023-03-12T04:24:47;100817.22;;;2.11;100.00
29909;BME280;36247;51.952;6.146;2023-03-12T04:27:13;100814.03;;;1.99;100.00
29909;BME280;36247;51.952;6.146;2023-03-12T04:29:39;100813.03;;;1.97;100.00
29909;BME280;36247;51.952;6.146;2023-03-12T04:32:07;100811.25;;;1.96;100.00
29909;BME280;36247;51.952;6.146;2023-03-12T04:34:34;100805.00;;;1.92;100.00
29909;BME280;36247;51.952;6.146;2023-03-12T04:37:02;100801.78;;;1.98;100.00
29909;BME280;36247;51.952;6.146;2023-03-12T04:39:28;100806.94;;;1.96;100.00
29909;BME280;36247;51.952;6.146;2023-03-12T04:41:54;100810.50;;;1.98;100.00
29909;BME280;36247;51.952;6.146;2023-03-12T04:44:20;100814.72;;;1.94;100.00
29909;BME280;36247;51.952;6.146;2023-03-12T04:46:45;100804.25;;;1.94;100.00
29909;BME280;36247;51.952;6.146;2023-03-12T04:49:14;100792.81;;;1.92;100.00
29909;BME280;36247;51.952;6.146;2023-03-12T04:51:41;100798.38;;;1.99;100.00
29909;BME280;36247;51.952;6.146;2023-03-12T04:54:07;100803.59;;;1.99;100.00
29909;BME280;36247;51.952;6.146;2023-03-12T04:56:34;100794.16;;;2.02;100.00
29909;BME280;36247;51.952;6.146;2023-03-12T04:59:00;100789.75;;;2.01;100.00
29909;BME280;36247;51.952;6.146;2023-03-12T05:01:30;100785.59;;;2.05;100.00
29909;BME280;36247;51.952;6.146;2023-03-12T05:03:56;100792.03;;;2.13;100.00
29909;BME280;36247;51.952;6.146;2023-03-12T05:06:23;100786.81;;;2.13;100.00
29909;BME280;36247;51.952;6.146;2023-03-12T05:08:49;100781.88;;;2.19;100.00
29909;BME280;36247;51.952;6.146;2023-03-12T05:11:15;100780.78;;;2.14;100.00
29909;BME280;36247;51.952;6.146;2023-03-12T05:13:41;100789.44;;;2.13;100.00
29909;BME280;36247;51.952;6.146;2023-03-12T05:16:08;100781.13;;;2.22;100.00
29909;BME280;36247;51.952;6.146;2023-03-12T05:18:34;100782.88;;;2.21;100.00
29909;BME280;36247;51.952;6.146;2023-03-12T05:21:11;100777.78;;;2.24;100.00
29909;BME280;36247;51.952;6.146;2023-03-12T05:23:38;100762.84;;;2.22;100.00
29909;BME280;36247;51.952;6.146;2023-03-12T05:26:18;100751.63;;;2.24;100.00
29909;BME280;36247;51.952;6.146;2023-03-12T05:28:45;100744.47;;;2.20;100.00
29909;BME280;36247;51.952;6.146;2023-03-12T05:31:11;100743.59;;;2.20;100.00
29909;BME280;36247;51.952;6.146;2023-03-12T05:33:37;100747.47;;;2.10;100.00
29909;BME280;36247;51.952;6.146;2023-03-12T05:36:03;100742.59;;;2.18;100.00
29909;BME280;36247;51.952;6.146;2023-03-12T05:38:29;100732.22;;;2.19;100.00
29909;BME280;36247;51.952;6.146;2023-03-12T05:40:56;100734.03;;;2.20;100.00
29909;BME280;36247;51.952;6.146;2023-03-12T05:43:25;100724.31;;;2.18;100.00
29909;BME280;36247;51.952;6.146;2023-03-12T05:45:52;100727.84;;;2.18;100.00
29909;BME280;36247;51.952;6.146;2023-03-12T05:48:18;100708.94;;;2.06;100.00
29909;BME280;36247;51.952;6.146;2023-03-12T05:50:44;100707.72;;;1.98;100.00
29909;BME280;36247;51.952;6.146;2023-03-12T05:53:10;100711.44;;;2.03;100.00
29909;BME280;36247;51.952;6.146;2023-03-12T05:55:36;100708.13;;;2.07;100.00
29909;BME280;36247;51.952;6.146;2023-03-12T05:58:04;100707.53;;;2.13;100.00
29909;BME280;36247;51.952;6.146;2023-03-12T06:00:31;100696.25;;;2.14;100.00
29909;BME280;36247;51.952;6.146;2023-03-12T06:02:57;100701.50;;;2.14;100.00
29909;BME280;36247;51.952;6.146;2023-03-12T06:05:23;100699.91;;;2.17;100.00
29909;BME280;36247;51.952;6.146;2023-03-12T06:07:49;100708.63;;;2.18;100.00
29909;BME280;36247;51.952;6.146;2023-03-12T06:10:15;100701.56;;;2.15;100.00
29909;BME280;36247;51.952;6.146;2023-03-12T06:12:42;100690.53;;;2.22;100.00
29909;BME280;36247;51.952;6.146;2023-03-12T06:15:09;100695.63;;;2.19;100.00
29909;BME280;36247;51.952;6.146;2023-03-12T06:17:34;100691.59;;;2.26;100.00
29909;BME280;36247;51.952;6.146;2023-03-12T06:20:00;100691.66;;;2.27;100.00
29909;BME280;36247;51.952;6.146;2023-03-12T06:22:26;100692.59;;;2.29;100.00
29909;BME280;36247;51.952;6.146;2023-03-12T06:24:53;100697.91;;;2.31;100.00
29909;BME280;36247;51.952;6.146;2023-03-12T06:27:20;100688.69;;;2.39;100.00
29909;BME280;36247;51.952;6.146;2023-03-12T06:29:45;100687.03;;;2.41;100.00
29909;BME280;36247;51.952;6.146;2023-03-12T06:32:12;100681.81;;;2.41;100.00
29909;BME280;36247;51.952;6.146;2023-03-12T06:34:38;100678.25;;;2.39;100.00
29909;BME280;36247;51.952;6.146;2023-03-12T06:37:03;100678.31;;;2.41;100.00
29909;BME280;36247;51.952;6.146;2023-03-12T06:39:29;100679.31;;;2.44;100.00
29909;BME280;36247;51.952;6.146;2023-03-12T06:41:54;100683.88;;;2.49;100.00
29909;BME280;36247;51.952;6.146;2023-03-12T06:44:20;100682.25;;;2.52;100.00
29909;BME280;36247;51.952;6.146;2023-03-12T06:46:46;100691.66;;;2.47;100.00
29909;BME280;36247;51.952;6.146;2023-03-12T06:49:13;100696.75;;;2.44;100.00
29909;BME280;36247;51.952;6.146;2023-03-12T06:51:39;100699.09;;;2.38;100.00
29909;BME280;36247;51.952;6.146;2023-03-12T06:54:04;100694.75;;;2.38;100.00
29909;BME280;36247;51.952;6.146;2023-03-12T06:56:31;100695.34;;;2.33;100.00
29909;BME280;36247;51.952;6.146;2023-03-12T06:58:56;100690.97;;;2.32;100.00
29909;BME280;36247;51.952;6.146;2023-03-12T07:01:22;100684.91;;;2.33;100.00
29909;BME280;36247;51.952;6.146;2023-03-12T07:03:47;100686.63;;;2.32;100.00
29909;BME280;36247;51.952;6.146;2023-03-12T07:06:15;100691.03;;;2.33;100.00
29909;BME280;36247;51.952;6.146;2023-03-12T07:08:44;100682.41;;;2.36;100.00
29909;BME280;36247;51.952;6.146;2023-03-12T07:11:10;100677.06;;;2.33;100.00
29909;BME280;36247;51.952;6.146;2023-03-12T07:13:36;100670.47;;;2.41;100.00
29909;BME280;36247;51.952;6.146;2023-03-12T07:16:02;100667.28;;;2.48;100.00
29909;BME280;36247;51.952;6.146;2023-03-12T07:18:28;100662.75;;;2.44;100.00
29909;BME280;36247;51.952;6.146;2023-03-12T07:20:54;100651.53;;;2.46;100.00
29909;BME280;36247;51.952;6.146;2023-03-12T07:23:20;100658.47;;;2.46;100.00
29909;BME280;36247;51.952;6.146;2023-03-12T07:25:48;100650.34;;;2.40;100.00
29909;BME280;36247;51.952;6.146;2023-03-12T07:28:14;100655.44;;;2.56;100.00
29909;BME280;36247;51.952;6.146;2023-03-12T07:30:40;100653.00;;;2.61;100.00
29909;BME280;36247;51.952;6.146;2023-03-12T07:33:09;100642.03;;;2.70;100.00
29909;BME280;36247;51.952;6.146;2023-03-12T07:35:36;100622.53;;;2.82;100.00
29909;BME280;36247;51.952;6.146;2023-03-12T07:38:04;100630.25;;;3.00;100.00
29909;BME280;36247;51.952;6.146;2023-03-12T07:40:30;100633.88;;;3.04;100.00
29909;BME280;36247;51.952;6.146;2023-03-12T07:42:55;100628.28;;;2.95;100.00
29909;BME280;36247;51.952;6.146;2023-03-12T07:45:21;100622.53;;;3.04;100.00
29909;BME280;36247;51.952;6.146;2023-03-12T07:47:47;100622.72;;;3.08;100.00
29909;BME280;36247;51.952;6.146;2023-03-12T07:50:14;100620.34;;;2.93;100.00
29909;BME280;36247;51.952;6.146;2023-03-12T07:52:40;100618.44;;;2.89;100.00
29909;BME280;36247;51.952;6.146;2023-03-12T07:55:07;100621.31;;;2.95;100.00
29909;BME280;36247;51.952;6.146;2023-03-12T07:57:33;100616.75;;;2.90;100.00
29909;BME280;36247;51.952;6.146;2023-03-12T07:59:58;100610.53;;;2.88;100.00
29909;BME280;36247;51.952;6.146;2023-03-12T08:02:24;100618.31;;;2.86;100.00
29909;BME280;36247;51.952;6.146;2023-03-12T08:04:50;100608.66;;;2.85;100.00
29909;BME280;36247;51.952;6.146;2023-03-12T08:07:15;100615.75;;;2.88;100.00
29909;BME280;36247;51.952;6.146;2023-03-12T08:09:41;100613.09;;;2.86;100.00
29909;BME280;36247;51.952;6.146;2023-03-12T08:12:07;100609.41;;;2.81;100.00
29909;BME280;36247;51.952;6.146;2023-03-12T08:14:33;100616.50;;;2.85;100.00
29909;BME280;36247;51.952;6.146;2023-03-12T08:16:59;100605.34;;;2.89;100.00
29909;BME280;36247;51.952;6.146;2023-03-12T08:19:26;100619.22;;;2.87;100.00
29909;BME280;36247;51.952;6.146;2023-03-12T08:21:53;100617.38;;;2.84;100.00
29909;BME280;36247;51.952;6.146;2023-03-12T08:24:20;100637.44;;;2.85;100.00
29909;BME280;36247;51.952;6.146;2023-03-12T08:26:46;100642.50;;;2.80;100.00
29909;BME280;36247;51.952;6.146;2023-03-12T08:29:11;100638.81;;;2.75;100.00
29909;BME280;36247;51.952;6.146;2023-03-12T08:31:37;100638.63;;;2.71;100.00
29909;BME280;36247;51.952;6.146;2023-03-12T08:34:03;100646.47;;;2.71;100.00
29909;BME280;36247;51.952;6.146;2023-03-12T08:36:28;100649.06;;;2.71;100.00
29909;BME280;36247;51.952;6.146;2023-03-12T08:38:54;100642.09;;;2.71;100.00
29909;BME280;36247;51.952;6.146;2023-03-12T08:41:20;100649.75;;;2.67;100.00
29909;BME280;36247;51.952;6.146;2023-03-12T08:43:46;100631.97;;;2.79;100.00
29909;BME280;36247;51.952;6.146;2023-03-12T08:46:12;100637.44;;;2.85;100.00
29909;BME280;36247;51.952;6.146;2023-03-12T08:48:38;100635.81;;;2.87;100.00
29909;BME280;36247;51.952;6.146;2023-03-12T08:51:05;100632.63;;;2.94;100.00
29909;BME280;36247;51.952;6.146;2023-03-12T08:53:33;100628.03;;;2.89;100.00
29909;BME280;36247;51.952;6.146;2023-03-12T08:55:59;100640.72;;;3.00;100.00
29909;BME280;36247;51.952;6.146;2023-03-12T08:58:25;100643.53;;;3.05;100.00
29909;BME280;36247;51.952;6.146;2023-03-12T09:00:53;100630.75;;;3.13;100.00
29909;BME280;36247;51.952;6.146;2023-03-12T09:03:19;100629.97;;;3.15;100.00
29909;BME280;36247;51.952;6.146;2023-03-12T09:05:46;100639.81;;;3.21;100.00
29909;BME280;36247;51.952;6.146;2023-03-12T09:08:13;100632.59;;;3.15;100.00
29909;BME280;36247;51.952;6.146;2023-03-12T09:10:40;100631.84;;;3.18;100.00
29909;BME280;36247;51.952;6.146;2023-03-12T09:13:06;100629.72;;;3.30;100.00
29909;BME280;36247;51.952;6.146;2023-03-12T09:15:32;100629.81;;;3.33;100.00
29909;BME280;36247;51.952;6.146;2023-03-12T09:17:58;100633.56;;;3.40;100.00
29909;BME280;36247;51.952;6.146;2023-03-12T09:20:24;100635.88;;;3.32;100.00
29909;BME280;36247;51.952;6.146;2023-03-12T09:22:50;100640.25;;;3.32;100.00
29909;BME280;36247;51.952;6.146;2023-03-12T09:25:16;100647.34;;;3.34;100.00
29909;BME280;36247;51.952;6.146;2023-03-12T09:27:45;100641.59;;;3.45;100.00
29909;BME280;36247;51.952;6.146;2023-03-12T09:30:16;100634.72;;;3.47;100.00
29909;BME280;36247;51.952;6.146;2023-03-12T09:32:42;100645.19;;;3.47;100.00
29909;BME280;36247;51.952;6.146;2023-03-12T09:35:12;100638.16;;;3.46;100.00
29909;BME280;36247;51.952;6.146;2023-03-12T09:37:38;100651.38;;;3.49;100.00
29909;BME280;36247;51.952;6.146;2023-03-12T09:40:05;100643.56;;;3.50;100.00
29909;BME280;36247;51.952;6.146;2023-03-12T09:42:56;100635.25;;;3.61;100.00
29909;BME280;36247;51.952;6.146;2023-03-12T09:45:27;100634.72;;;3.69;100.00
29909;BME280;36247;51.952;6.146;2023-03-12T09:47:56;100632.53;;;3.82;100.00
29909;BME280;36247;51.952;6.146;2023-03-12T09:55:40;100633.53;;;4.08;100.00
29909;BME280;36247;51.952;6.146;2023-03-12T09:58:18;100633.97;;;4.20;100.00
29909;BME280;36247;51.952;6.146;2023-03-12T10:00:46;100624.72;;;4.30;100.00
29909;BME280;36247;51.952;6.146;2023-03-12T10:03:25;100620.09;;;4.49;100.00
29909;BME280;36247;51.952;6.146;2023-03-12T10:06:05;100623.31;;;4.66;100.00
29909;BME280;36247;51.952;6.146;2023-03-12T10:09:04;100631.63;;;4.78;100.00
29909;BME280;36247;51.952;6.146;2023-03-12T10:23:05;100636.38;;;5.44;100.00
29909;BME280;36247;51.952;6.146;2023-03-12T10:25:45;100620.88;;;5.54;100.00
29909;BME280;36247;51.952;6.146;2023-03-12T10:28:35;100630.16;;;5.70;100.00
29909;BME280;36247;51.952;6.146;2023-03-12T10:31:05;100623.25;;;5.73;100.00
29909;BME280;36247;51.952;6.146;2023-03-12T10:33:43;100629.09;;;5.63;100.00
29909;BME280;36247;51.952;6.146;2023-03-12T10:36:15;100624.88;;;5.70;100.00
29909;BME280;36247;51.952;6.146;2023-03-12T10:38:41;100627.00;;;5.81;100.00
29909;BME280;36247;51.952;6.146;2023-03-12T10:41:31;100633.44;;;5.91;100.00
29909;BME280;36247;51.952;6.146;2023-03-12T10:44:01;100627.00;;;5.81;100.00
29909;BME280;36247;51.952;6.146;2023-03-12T10:49:21;100619.41;;;5.92;100.00
29909;BME280;36247;51.952;6.146;2023-03-12T10:52:17;100625.97;;;6.05;100.00
29909;BME280;36247;51.952;6.146;2023-03-12T10:54:45;100618.25;;;6.11;100.00
29909;BME280;36247;51.952;6.146;2023-03-12T10:57:13;100608.72;;;6.16;100.00
29909;BME280;36247;51.952;6.146;2023-03-12T10:59:42;100607.47;;;6.34;100.00
29909;BME280;36247;51.952;6.146;2023-03-12T11:04:57;100606.63;;;6.35;100.00
29909;BME280;36247;51.952;6.146;2023-03-12T11:12:34;100602.41;;;6.75;100.00
29909;BME280;36247;51.952;6.146;2023-03-12T11:15:25;100605.84;;;6.73;100.00
29909;BME280;36247;51.952;6.146;2023-03-12T11:20:45;100612.34;;;6.85;100.00
29909;BME280;36247;51.952;6.146;2023-03-12T11:23:30;100617.94;;;6.99;100.00
29909;BME280;36247;51.952;6.146;2023-03-12T11:26:01;100612.97;;;7.12;100.00
29909;BME280;36247;51.952;6.146;2023-03-12T11:28:36;100620.16;;;7.19;100.00
29909;BME280;36247;51.952;6.146;2023-03-12T11:31:02;100616.03;;;7.29;100.00
29909;BME280;36247;51.952;6.146;2023-03-12T11:33:27;100594.44;;;7.45;100.00
29909;BME280;36247;51.952;6.146;2023-03-12T11:39:08;100609.97;;;7.72;100.00
29909;BME280;36247;51.952;6.146;2023-03-12T11:44:25;100628.47;;;7.75;100.00
29909;BME280;36247;51.952;6.146;2023-03-12T11:47:09;100625.09;;;7.81;100.00
29909;BME280;36247;51.952;6.146;2023-03-12T11:52:29;100643.78;;;7.92;100.00
29909;BME280;36247;51.952;6.146;2023-03-12T11:55:05;100634.28;;;7.99;100.00
29909;BME280;36247;51.952;6.146;2023-03-12T11:57:53;100626.56;;;8.09;100.00
29909;BME280;36247;51.952;6.146;2023-03-12T12:08:41;100608.09;;;8.55;100.00
29909;BME280;36247;51.952;6.146;2023-03-12T12:14:33;100591.03;;;8.87;100.00
29909;BME280;36247;51.952;6.146;2023-03-12T12:17:09;100595.31;;;8.77;100.00
29909;BME280;36247;51.952;6.146;2023-03-12T12:23:13;100591.75;;;8.75;100.00
29909;BME280;36247;51.952;6.146;2023-03-12T12:28:46;100570.34;;;8.59;100.00
29909;BME280;36247;51.952;6.146;2023-03-12T12:37:14;100579.66;;;8.89;100.00
29909;BME280;36247;51.952;6.146;2023-03-12T12:39:48;100562.31;;;9.07;100.00
29909;BME280;36247;51.952;6.146;2023-03-12T12:42:23;100572.19;;;9.17;100.00
29909;BME280;36247;51.952;6.146;2023-03-12T12:44:52;100560.63;;;9.12;100.00
29909;BME280;36247;51.952;6.146;2023-03-12T12:47:46;100579.28;;;9.20;100.00
29909;BME280;36247;51.952;6.146;2023-03-12T12:50:15;100567.56;;;9.04;100.00
29909;BME280;36247;51.952;6.146;2023-03-12T12:52:42;100565.75;;;9.01;100.00
29909;BME280;36247;51.952;6.146;2023-03-12T12:55:14;100556.84;;;8.94;100.00
29909;BME280;36247;51.952;6.146;2023-03-12T12:57:48;100556.91;;;8.97;100.00
29909;BME280;36247;51.952;6.146;2023-03-12T13:00:30;100551.56;;;8.94;100.00
29909;BME280;36247;51.952;6.146;2023-03-12T13:03:00;100560.34;;;8.93;100.00
29909;BME280;36247;51.952;6.146;2023-03-12T13:05:40;100553.44;;;9.03;100.00
29909;BME280;36247;51.952;6.146;2023-03-12T13:08:32;100542.97;;;9.08;100.00
29909;BME280;36247;51.952;6.146;2023-03-12T13:11:04;100551.00;;;9.14;100.00
29909;BME280;36247;51.952;6.146;2023-03-12T13:13:30;100551.97;;;9.22;100.00
29909;BME280;36247;51.952;6.146;2023-03-12T13:19:02;100544.03;;;9.21;100.00
29909;BME280;36247;51.952;6.146;2023-03-12T13:24:28;100540.53;;;9.22;100.00
29909;BME280;36247;51.952;6.146;2023-03-12T13:26:58;100539.75;;;9.29;100.00
29909;BME280;36247;51.952;6.146;2023-03-12T13:31:54;100529.25;;;9.33;100.00
29909;BME280;36247;51.952;6.146;2023-03-12T13:36:47;100524.91;;;9.40;100.00
29909;BME280;36247;51.952;6.146;2023-03-12T13:41:46;100548.44;;;9.89;100.00
29909;BME280;36247;51.952;6.146;2023-03-12T13:50:23;100515.28;;;10.20;100.00
29909;BME280;36247;51.952;6.146;2023-03-12T13:52:39;100513.63;;;10.30;100.00
29909;BME280;36247;51.952;6.146;2023-03-12T13:57:40;100514.44;;;10.26;100.00
29909;BME280;36247;51.952;6.146;2023-03-12T14:00:30;100522.34;;;10.21;100.00
29909;BME280;36247;51.952;6.146;2023-03-12T14:03:03;100527.66;;;10.21;100.00
29909;BME280;36247;51.952;6.146;2023-03-12T14:05:33;100531.19;;;10.23;100.00
29909;BME280;36247;51.952;6.146;2023-03-12T14:08:18;100536.63;;;10.34;100.00
29909;BME280;36247;51.952;6.146;2023-03-12T14:13:39;100546.88;;;10.97;100.00
29909;BME280;36247;51.952;6.146;2023-03-12T14:16:18;100540.13;;;11.42;100.00
29909;BME280;36247;51.952;6.146;2023-03-12T14:18:47;100530.69;;;12.14;100.00
29909;BME280;36247;51.952;6.146;2023-03-12T14:21:15;100534.03;;;11.62;100.00
29909;BME280;36247;51.952;6.146;2023-03-12T14:24:00;100536.53;;;11.36;100.00
29909;BME280;36247;51.952;6.146;2023-03-12T14:26:31;100549.22;;;11.94;100.00
29909;BME280;36247;51.952;6.146;2023-03-12T14:29:07;100522.63;;;11.91;100.00